Time;durP1;ratioP1;P1;durP2;ratioP2;P2;SDS_P1;SDS_P2;PMS_P1;PMS_P2;Temp;Humidity;BMP_temperature;BMP_pressure;BME280_temperature;BME280_humidity;BME280_pressure;Samples;Min_cycle;Max_cycle;Signal;HPM_P1;HPM_P2
2021/01/02 00:01:00;;;;;;;6.13;4.57;;;7.40;77.60;;;;;;5036310;28;20053;-64
2021/01/02 00:03:55;;;;;;;5.28;4.43;;;7.40;77.80;;;;;;5034218;28;20025;-65
2021/01/02 00:06:27;;;;;;;5.63;4.63;;;7.40;77.80;;;;;;5033167;28;20026;-64
2021/01/02 00:09:02;;;;;;;6.57;4.90;;;7.40;77.90;;;;;;5016606;28;20030;-64
2021/01/02 00:11:42;;;;;;;5.68;4.32;;;7.50;77.90;;;;;;5031699;28;20036;-64
2021/01/02 00:14:20;;;;;;;5.38;4.32;;;7.50;77.70;;;;;;5026066;28;20048;-65
2021/01/02 00:16:50;;;;;;;5.50;4.68;;;7.40;77.50;;;;;;5035299;28;20025;-64
2021/01/02 00:19:37;;;;;;;5.47;4.30;;;7.40;77.30;;;;;;5036137;28;20464;-64
2021/01/02 00:22:15;;;;;;;4.80;3.53;;;7.40;77.40;;;;;;5035836;28;20029;-64
2021/01/02 00:24:57;;;;;;;4.60;3.67;;;7.40;77.50;;;;;;5034207;28;20037;-64
2021/01/02 00:27:44;;;;;;;4.03;3.28;;;7.40;77.30;;;;;;5034202;28;20049;-64
2021/01/02 00:30:22;;;;;;;3.38;2.83;;;7.40;76.90;;;;;;5032276;28;20036;-64
2021/01/02 00:33:28;;;;;;;3.38;2.85;;;7.30;76.70;;;;;;5032282;28;20029;-64
2021/01/02 00:36:07;;;;;;;3.17;2.88;;;7.30;76.90;;;;;;5032652;28;20026;-65
2021/01/02 00:38:37;;;;;;;4.05;3.20;;;7.30;76.70;;;;;;5030574;28;20112;-64
2021/01/02 00:41:06;;;;;;;3.70;3.15;;;7.30;76.60;;;;;;5035753;28;20026;-64
2021/01/02 00:43:33;;;;;;;3.15;2.78;;;7.20;76.50;;;;;;5035170;28;20025;-64
2021/01/02 00:45:59;;;;;;;3.70;3.17;;;7.20;76.40;;;;;;5026449;28;20053;-64
2021/01/02 00:48:26;;;;;;;3.58;2.70;;;7.20;76.60;;;;;;5015516;28;20504;-64
2021/01/02 00:50:54;;;;;;;2.70;2.50;;;7.30;76.60;;;;;;5029544;28;20031;-64
2021/01/02 00:53:54;;;;;;;3.35;2.90;;;7.30;76.20;;;;;;5029025;28;20022;-64
2021/01/02 00:56:29;;;;;;;3.08;2.78;;;7.30;76.10;;;;;;5014983;28;20041;-64
2021/01/02 00:59:16;;;;;;;3.38;2.78;;;7.30;76.50;;;;;;5025561;28;20025;-64
2021/01/02 01:02:07;;;;;;;3.47;2.90;;;7.30;76.40;;;;;;5034750;28;20034;-64
2021/01/02 01:04:45;;;;;;;3.42;3.08;;;7.40;76.00;;;;;;5015563;28;20029;-64
2021/01/02 01:07:18;;;;;;;4.18;2.95;;;7.40;76.00;;;;;;5014970;28;20065;-64
2021/01/02 01:09:49;;;;;;;3.20;2.67;;;7.40;76.10;;;;;;5026848;28;20026;-65
2021/01/02 01:12:18;;;;;;;3.20;2.90;;;7.40;76.10;;;;;;5028400;28;20021;-64
2021/01/02 01:14:46;;;;;;;2.88;2.67;;;7.40;75.90;;;;;;5021886;28;20063;-64
2021/01/02 01:17:20;;;;;;;3.13;2.75;;;7.40;75.70;;;;;;5035076;28;20523;-64
2021/01/02 01:19:52;;;;;;;3.67;2.92;;;7.40;75.90;;;;;;5021397;28;20053;-64
2021/01/02 01:22:23;;;;;;;3.60;3.13;;;7.40;75.90;;;;;;5034767;28;20038;-64
2021/01/02 01:25:06;;;;;;;3.15;2.80;;;7.40;75.70;;;;;;5028293;28;20493;-64
2021/01/02 01:28:08;;;;;;;3.35;2.90;;;7.50;75.70;;;;;;5028585;28;20046;-64
2021/01/02 01:30:39;;;;;;;3.15;2.85;;;7.50;75.90;;;;;;5023782;28;20120;-64
2021/01/02 01:33:05;;;;;;;3.80;2.90;;;7.50;75.90;;;;;;5018234;28;20025;-64
2021/01/02 01:35:31;;;;;;;3.80;2.83;;;7.50;75.60;;;;;;5024960;28;20033;-64
2021/01/02 01:37:57;;;;;;;4.05;3.33;;;7.50;75.40;;;;;;5014822;28;20069;-64
2021/01/02 01:40:26;;;;;;;3.53;3.22;;;7.60;75.40;;;;;;5034692;28;20028;-64
2021/01/02 01:43:04;;;;;;;3.40;2.97;;;7.60;75.50;;;;;;5021618;28;20088;-64
2021/01/02 01:45:38;;;;;;;3.47;2.97;;;7.60;75.70;;;;;;5022594;28;20013;-65
2021/01/02 01:48:11;;;;;;;4.55;3.30;;;7.60;75.40;;;;;;5034008;28;20025;-64
2021/01/02 01:50:57;;;;;;;3.80;3.10;;;7.70;75.20;;;;;;5024464;28;20029;-65
2021/01/02 01:53:26;;;;;;;4.20;3.45;;;7.60;74.80;;;;;;5031783;28;20109;-65
2021/01/02 01:56:15;;;;;;;3.78;3.00;;;7.60;74.70;;;;;;5034235;28;20028;-65
2021/01/02 01:58:52;;;;;;;3.50;3.20;;;7.60;74.60;;;;;;5021544;28;20087;-64
2021/01/02 02:01:24;;;;;;;4.10;3.40;;;7.60;74.80;;;;;;5034143;28;20492;-64
2021/01/02 02:04:37;;;;;;;3.17;2.88;;;7.50;75.00;;;;;;5025905;28;20464;-64
2021/01/02 02:07:15;;;;;;;3.72;3.25;;;7.60;74.80;;;;;;5033416;28;20026;-64
2021/01/02 02:09:42;;;;;;;3.45;3.13;;;7.50;74.80;;;;;;5033297;28;20040;-64
2021/01/02 02:12:23;;;;;;;3.10;2.80;;;7.50;75.00;;;;;;5031532;28;20009;-64
2021/01/02 02:14:57;;;;;;;3.47;3.17;;;7.50;75.10;;;;;;5032386;28;20045;-64
2021/01/02 02:17:37;;;;;;;4.13;3.30;;;7.50;74.80;;;;;;5020331;28;20037;-64
2021/01/02 02:20:10;;;;;;;4.03;3.33;;;7.50;75.00;;;;;;5033139;28;20021;-64
2021/01/02 02:22:38;;;;;;;3.92;3.33;;;7.50;75.10;;;;;;5033951;28;20041;-64
2021/01/02 02:25:07;;;;;;;5.38;3.70;;;7.50;75.20;;;;;;5033767;28;20108;-64
2021/01/02 02:27:36;;;;;;;3.90;3.50;;;7.60;75.00;;;;;;5033013;28;20053;-64
2021/01/02 02:30:12;;;;;;;4.25;3.40;;;7.60;75.10;;;;;;5026550;28;20477;-65
2021/01/02 02:32:48;;;;;;;4.65;3.10;;;7.60;75.10;;;;;;5028297;28;20378;-64
2021/01/02 02:35:16;;;;;;;4.20;3.40;;;7.60;75.10;;;;;;5032667;28;20017;-64
2021/01/02 02:37:50;;;;;;;3.83;3.25;;;7.50;74.60;;;;;;5033161;28;20025;-64
2021/01/02 02:40:17;;;;;;;4.68;3.53;;;7.50;74.90;;;;;;5032823;28;20045;-64
2021/01/02 02:42:47;;;;;;;4.03;3.13;;;7.60;75.20;;;;;;5025413;28;20469;-64
2021/01/02 02:45:15;;;;;;;4.47;3.55;;;7.60;74.90;;;;;;5026823;28;20029;-64
2021/01/02 02:47:44;;;;;;;3.78;3.33;;;7.60;74.80;;;;;;5033313;28;20032;-64
2021/01/02 02:50:18;;;;;;;4.07;3.33;;;7.60;74.70;;;;;;5032686;28;20021;-64
2021/01/02 02:52:48;;;;;;;3.75;3.33;;;7.60;74.60;;;;;;5033153;28;20017;-64
2021/01/02 02:55:14;;;;;;;4.30;3.47;;;7.60;74.60;;;;;;5027696;28;20030;-64
2021/01/02 02:57:49;;;;;;;4.35;3.67;;;7.60;74.50;;;;;;5025738;28;20067;-64
2021/01/02 03:00:17;;;;;;;3.80;3.33;;;7.60;74.70;;;;;;5013047;28;20026;-64
2021/01/02 03:02:48;;;;;;;4.43;3.70;;;7.70;75.00;;;;;;5013305;28;20065;-64
2021/01/02 03:05:17;;;;;;;5.13;3.38;;;7.70;75.10;;;;;;5026831;28;20030;-64
2021/01/02 03:07:48;;;;;;;5.05;3.60;;;7.70;74.80;;;;;;5027008;28;20022;-65
2021/01/02 03:10:16;;;;;;;5.43;4.10;;;7.80;74.80;;;;;;5026281;28;20055;-64
2021/01/02 03:12:44;;;;;;;4.43;3.70;;;7.80;74.80;;;;;;5013255;28;20109;-65
2021/01/02 03:15:11;;;;;;;4.18;3.63;;;7.80;74.80;;;;;;5020038;28;20117;-64
2021/01/02 03:17:38;;;;;;;5.60;4.00;;;7.90;74.70;;;;;;5026654;28;20021;-64
2021/01/02 03:20:05;;;;;;;5.55;4.22;;;7.90;74.70;;;;;;5023286;28;20030;-64
2021/01/02 03:22:31;;;;;;;5.45;3.92;;;7.90;74.40;;;;;;5018783;28;20025;-64
2021/01/02 03:24:56;;;;;;;4.20;3.78;;;7.90;74.40;;;;;;5032710;28;20166;-64
2021/01/02 03:27:22;;;;;;;4.75;4.25;;;7.80;74.20;;;;;;5032264;28;20127;-64
2021/01/02 03:29:48;;;;;;;4.75;3.63;;;7.80;74.10;;;;;;5030439;28;20053;-64
2021/01/02 03:32:14;;;;;;;4.95;4.00;;;7.80;74.10;;;;;;5032044;28;20386;-64
2021/01/02 03:34:41;;;;;;;4.07;3.47;;;7.80;74.10;;;;;;5026348;28;20021;-65
2021/01/02 03:37:10;;;;;;;4.90;4.03;;;7.80;74.30;;;;;;5031750;28;20029;-64
2021/01/02 03:39:35;;;;;;;4.72;3.85;;;7.80;73.80;;;;;;5032273;28;20021;-65
2021/01/02 03:42:01;;;;;;;4.03;3.47;;;7.80;73.80;;;;;;5032479;28;20044;-64
2021/01/02 03:44:27;;;;;;;5.20;3.78;;;7.80;74.00;;;;;;5032206;28;20053;-65
2021/01/02 03:46:53;;;;;;;5.03;3.78;;;7.80;73.70;;;;;;5028204;28;20064;-64
2021/01/02 03:49:18;;;;;;;6.30;3.95;;;7.80;73.60;;;;;;5012657;28;20033;-64
2021/01/02 03:51:44;;;;;;;4.75;3.78;;;7.70;73.00;;;;;;5028007;28;20105;-64
2021/01/02 03:54:10;;;;;;;5.22;3.92;;;7.70;73.00;;;;;;5032142;28;20079;-64
2021/01/02 03:56:35;;;;;;;4.72;3.78;;;7.70;72.90;;;;;;5031753;28;20061;-64
2021/01/02 03:59:01;;;;;;;6.22;4.05;;;7.70;72.50;;;;;;5031035;28;20030;-64
2021/01/02 04:01:27;;;;;;;5.07;3.72;;;7.60;72.10;;;;;;5032391;28;20021;-64
2021/01/02 04:03:52;;;;;;;4.68;3.50;;;7.60;71.80;;;;;;5031822;28;20036;-65
2021/01/02 04:06:25;;;;;;;4.50;3.30;;;7.50;71.80;;;;;;5032344;28;20062;-65
2021/01/02 04:08:51;;;;;;;4.22;3.67;;;7.40;71.90;;;;;;5028864;28;20044;-64
2021/01/02 04:11:17;;;;;;;4.43;3.80;;;7.30;71.90;;;;;;5021301;28;20022;-64
2021/01/02 04:13:42;;;;;;;6.10;3.70;;;7.20;71.90;;;;;;5031713;28;20022;-64
2021/01/02 04:16:08;;;;;;;4.85;3.83;;;7.20;72.00;;;;;;5031823;28;20014;-64
2021/01/02 04:18:34;;;;;;;6.55;4.88;;;7.20;72.80;;;;;;5032180;28;20065;-64
2021/01/02 04:21:00;;;;;;;6.85;4.88;;;7.20;72.30;;;;;;5031358;28;20462;-64
2021/01/02 04:23:26;;;;;;;5.97;4.90;;;7.20;72.90;;;;;;5021455;28;20026;-64
2021/01/02 04:25:52;;;;;;;7.18;5.00;;;7.20;72.10;;;;;;5016015;28;20035;-64
2021/01/02 04:28:18;;;;;;;6.03;4.60;;;7.20;72.00;;;;;;5031952;28;20505;-65
2021/01/02 04:30:44;;;;;;;5.90;4.40;;;7.20;71.90;;;;;;5019369;28;20108;-65
2021/01/02 04:33:10;;;;;;;5.72;4.40;;;7.20;71.50;;;;;;5030158;28;20025;-65
2021/01/02 04:35:36;;;;;;;4.85;3.95;;;7.20;71.60;;;;;;5031737;28;20022;-64
2021/01/02 04:38:02;;;;;;;5.53;4.40;;;7.20;71.40;;;;;;5028197;28;20025;-65
2021/01/02 04:40:28;;;;;;;5.53;4.25;;;7.20;71.40;;;;;;5031212;28;20021;-64
2021/01/02 04:42:54;;;;;;;6.70;4.88;;;7.20;71.40;;;;;;5028526;28;20440;-65
2021/01/02 04:45:21;;;;;;;5.82;4.75;;;7.20;71.40;;;;;;5015868;28;20481;-65
2021/01/02 04:47:49;;;;;;;5.25;4.53;;;7.20;71.40;;;;;;5027464;28;20064;-64
2021/01/02 04:50:15;;;;;;;7.15;4.88;;;7.20;71.40;;;;;;5033628;28;20017;-64
2021/01/02 04:52:41;;;;;;;6.78;5.07;;;7.20;71.30;;;;;;5035317;28;20532;-64
2021/01/02 04:55:09;;;;;;;7.60;5.43;;;7.20;71.40;;;;;;5032690;28;20026;-65
2021/01/02 04:57:36;;;;;;;5.88;4.68;;;7.20;71.30;;;;;;5023922;28;20022;-64
2021/01/02 05:00:09;;;;;;;6.68;4.95;;;7.20;71.40;;;;;;5020513;28;20104;-64
2021/01/02 05:02:37;;;;;;;5.78;4.65;;;7.20;71.20;;;;;;5022937;28;20481;-65
2021/01/02 05:05:04;;;;;;;6.55;4.90;;;7.20;71.20;;;;;;5035346;28;20026;-65
2021/01/02 05:07:31;;;;;;;6.47;4.65;;;7.20;71.10;;;;;;5034716;28;20025;-65
2021/01/02 05:09:59;;;;;;;5.93;4.03;;;7.20;71.10;;;;;;5034925;28;20029;-64
2021/01/02 05:12:27;;;;;;;5.70;4.38;;;7.20;71.10;;;;;;5034547;28;20027;-65
2021/01/02 05:15:08;;;;;;;5.40;4.13;;;7.20;71.00;;;;;;5034637;28;20040;-65
2021/01/02 05:17:34;;;;;;;6.07;4.97;;;7.10;70.90;;;;;;5014856;28;20025;-64
2021/01/02 05:20:04;;;;;;;7.93;4.88;;;7.10;71.00;;;;;;5026122;28;20037;-64
2021/01/02 05:22:30;;;;;;;6.72;5.00;;;7.00;71.10;;;;;;5034661;28;20144;-64
2021/01/02 05:25:19;;;;;;;6.60;4.75;;;7.00;71.00;;;;;;5025827;28;20121;-64
2021/01/02 05:27:50;;;;;;;7.68;5.30;;;6.90;70.90;;;;;;5030498;28;20045;-65
2021/01/02 05:30:34;;;;;;;7.93;5.20;;;6.90;71.20;;;;;;5023739;28;20041;-65
2021/01/02 05:33:11;;;;;;;8.30;5.68;;;6.90;71.10;;;;;;5033826;28;20028;-65
2021/01/02 05:35:43;;;;;;;7.35;5.43;;;6.90;71.30;;;;;;5027846;28;20075;-64
2021/01/02 05:38:19;;;;;;;6.95;5.65;;;6.80;71.20;;;;;;5020152;28;20494;-64
2021/01/02 05:40:48;;;;;;;7.03;5.25;;;6.80;71.20;;;;;;5034545;28;20025;-64
2021/01/02 05:43:15;;;;;;;7.35;5.13;;;6.80;71.30;;;;;;5031610;28;20036;-64
2021/01/02 05:45:41;;;;;;;6.63;5.30;;;6.80;71.10;;;;;;5026505;28;20021;-64
2021/01/02 05:48:27;;;;;;;7.15;5.63;;;6.80;71.10;;;;;;5017934;28;20088;-64
2021/01/02 05:50:58;;;;;;;8.00;5.32;;;6.80;71.10;;;;;;5025497;28;20029;-64
2021/01/02 05:53:34;;;;;;;7.07;5.70;;;6.80;71.10;;;;;;5016387;28;20355;-64
2021/01/02 05:56:00;;;;;;;7.40;5.40;;;6.80;71.20;;;;;;5024857;28;20486;-64
2021/01/02 05:58:27;;;;;;;8.27;5.60;;;6.70;71.40;;;;;;5029390;28;20017;-64
2021/01/02 06:01:14;;;;;;;7.38;5.68;;;6.70;71.50;;;;;;5034091;28;20034;-64
2021/01/02 06:03:50;;;;;;;6.45;5.00;;;6.70;71.50;;;;;;5031698;28;20063;-64
2021/01/02 06:06:20;;;;;;;6.63;4.97;;;6.70;71.20;;;;;;5024174;28;20539;-65
2021/01/02 06:08:50;;;;;;;7.57;5.40;;;6.70;71.20;;;;;;5033624;28;20017;-64
2021/01/02 06:11:23;;;;;;;8.10;5.50;;;6.70;71.40;;;;;;5043480;28;20045;-64
2021/01/02 06:13:51;;;;;;;7.85;5.90;;;6.70;71.30;;;;;;5019943;28;20026;-64
2021/01/02 06:16:17;;;;;;;7.05;5.32;;;6.70;71.50;;;;;;5020864;28;20025;-64
2021/01/02 06:18:45;;;;;;;7.22;5.78;;;6.70;71.50;;;;;;5033676;28;20036;-65
2021/01/02 06:21:16;;;;;;;6.97;5.53;;;6.70;71.60;;;;;;5033979;28;20100;-64
2021/01/02 06:23:43;;;;;;;7.47;5.43;;;6.70;71.50;;;;;;5033985;28;20021;-64
2021/01/02 06:26:11;;;;;;;9.00;5.57;;;6.70;71.60;;;;;;5033106;28;20051;-65
2021/01/02 06:28:39;;;;;;;9.48;6.20;;;6.70;71.60;;;;;;5024419;28;20042;-64
2021/01/02 06:31:06;;;;;;;9.85;6.18;;;6.70;71.90;;;;;;5028415;28;20397;-64
2021/01/02 06:33:32;;;;;;;8.65;6.13;;;6.70;71.90;;;;;;5032776;28;20382;-64
2021/01/02 06:35:59;;;;;;;7.78;6.07;;;6.70;71.80;;;;;;5013764;28;20030;-64
2021/01/02 06:38:25;;;;;;;8.13;6.07;;;6.70;71.60;;;;;;5028757;28;20113;-64
2021/01/02 06:40:54;;;;;;;8.50;6.40;;;6.80;71.70;;;;;;5021216;28;20049;-64
2021/01/02 06:43:25;;;;;;;7.68;6.60;;;6.80;71.60;;;;;;5023663;28;20029;-64
2021/01/02 06:45:56;;;;;;;7.78;5.63;;;6.80;71.60;;;;;;5025163;28;20049;-64
2021/01/02 06:48:24;;;;;;;7.47;5.82;;;6.80;71.30;;;;;;5030972;28;20468;-65
2021/01/02 06:51:14;;;;;;;7.75;5.70;;;6.90;71.40;;;;;;5020107;28;20052;-64
2021/01/02 06:53:39;;;;;;;8.13;5.68;;;6.90;71.40;;;;;;5028674;28;20033;-64
2021/01/02 06:56:11;;;;;;;9.05;5.78;;;6.90;71.50;;;;;;5028750;28;20048;-64
2021/01/02 06:58:44;;;;;;;10.65;6.47;;;7.00;71.30;;;;;;5030152;28;20025;-65
2021/01/02 07:01:16;;;;;;;9.43;6.18;;;7.00;71.40;;;;;;5029033;28;20029;-64
2021/01/02 07:03:42;;;;;;;;;;;7.10;71.40;;;;;;5016559;28;20079;-64
2021/01/02 07:06:23;;;;;;;8.88;6.10;;;7.00;71.20;;;;;;5026980;28;20444;-65
2021/01/02 07:08:58;;;;;;;13.35;6.38;;;7.10;71.50;;;;;;5022040;28;20090;-66
2021/01/02 07:11:33;;;;;;;8.40;6.60;;;7.10;71.10;;;;;;5020436;28;20095;-66
2021/01/02 07:14:08;;;;;;;8.45;6.28;;;7.10;71.00;;;;;;5032043;28;20018;-65
2021/01/02 07:16:43;;;;;;;7.63;5.90;;;7.10;71.10;;;;;;5033393;28;20346;-64
2021/01/02 07:19:26;;;;;;;9.60;6.22;;;7.10;71.00;;;;;;5022967;28;20083;-64
2021/01/02 07:22:13;;;;;;;7.63;5.97;;;7.10;70.90;;;;;;5031047;28;20025;-65
2021/01/02 07:24:51;;;;;;;8.98;6.38;;;7.10;70.80;;;;;;5025778;28;20025;-64
2021/01/02 07:27:23;;;;;;;9.68;6.30;;;7.10;70.70;;;;;;5027616;28;20501;-65
2021/01/02 07:29:52;;;;;;;10.18;6.93;;;7.10;70.70;;;;;;5013169;28;20101;-65
2021/01/02 07:32:23;;;;;;;9.98;6.68;;;7.10;70.80;;;;;;5029343;28;20025;-66
2021/01/02 07:34:53;;;;;;;10.00;6.37;;;7.10;70.90;;;;;;5025070;28;20486;-65
2021/01/02 07:37:21;;;;;;;10.50;6.38;;;7.10;70.70;;;;;;5027730;28;20092;-63
2021/01/02 07:40:02;;;;;;;9.98;6.20;;;7.10;70.60;;;;;;5025068;28;20130;-65
2021/01/02 07:42:30;;;;;;;9.38;6.38;;;7.10;70.60;;;;;;5032708;28;20381;-65
2021/01/02 07:45:17;;;;;;;9.77;6.28;;;7.10;70.70;;;;;;5028418;28;20022;-65
2021/01/02 07:47:54;;;;;;;9.10;6.15;;;7.10;70.70;;;;;;5019428;28;20034;-65
2021/01/02 07:50:21;;;;;;;9.05;6.30;;;7.20;70.80;;;;;;5029152;28;20109;-65
2021/01/02 07:52:55;;;;;;;8.68;5.95;;;7.20;70.90;;;;;;5029590;28;20087;-65
2021/01/02 07:55:22;;;;;;;8.07;5.88;;;7.20;70.70;;;;;;5028404;28;20013;-65
2021/01/02 07:57:48;;;;;;;8.90;5.47;;;7.30;70.70;;;;;;5032344;28;20017;-65
2021/01/02 08:00:15;;;;;;;9.75;5.88;;;7.30;70.60;;;;;;5031977;28;20478;-65
2021/01/02 08:02:41;;;;;;;8.30;5.90;;;7.40;70.70;;;;;;5031217;28;20053;-64
2021/01/02 08:05:11;;;;;;;8.43;5.85;;;7.40;70.40;;;;;;5031825;28;20029;-64
2021/01/02 08:07:37;;;;;;;8.88;5.90;;;7.50;70.40;;;;;;5025416;28;20029;-65
2021/01/02 08:10:08;;;;;;;9.38;6.20;;;7.50;70.30;;;;;;5027540;28;20025;-65
2021/01/02 08:12:34;;;;;;;8.65;5.80;;;7.50;70.20;;;;;;5032056;28;20030;-64
2021/01/02 08:15:00;;;;;;;9.27;6.57;;;7.50;70.20;;;;;;5031435;28;20018;-64
2021/01/02 08:17:25;;;;;;;8.82;5.40;;;7.50;70.10;;;;;;5021062;28;20022;-64
2021/01/02 08:19:51;;;;;;;9.13;5.63;;;7.50;70.00;;;;;;5020684;28;20038;-65
2021/01/02 08:22:30;;;;;;;7.32;5.65;;;7.50;70.00;;;;;;5035714;28;20033;-65
2021/01/02 08:24:57;;;;;;;6.93;5.47;;;7.50;69.80;;;;;;5035960;28;20140;-64
2021/01/02 08:27:24;;;;;;;8.23;5.63;;;7.50;70.00;;;;;;5033057;28;20131;-64
2021/01/02 08:29:50;;;;;;;8.48;5.90;;;7.50;70.00;;;;;;5034816;28;20048;-64
2021/01/02 08:32:21;;;;;;;7.35;5.18;;;7.40;69.60;;;;;;5024717;28;20037;-64
2021/01/02 08:34:46;;;;;;;10.30;6.05;;;7.40;69.90;;;;;;5028096;28;20092;-65
2021/01/02 08:37:15;;;;;;;9.85;5.95;;;7.40;70.00;;;;;;5035761;28;20112;-65
2021/01/02 08:39:41;;;;;;;8.55;5.95;;;7.50;70.10;;;;;;5035200;28;20049;-64
2021/01/02 08:42:08;;;;;;;8.00;5.15;;;7.50;70.10;;;;;;5028837;28;20036;-65
2021/01/02 08:44:44;;;;;;;8.48;5.68;;;7.50;69.70;;;;;;5016047;28;20052;-65
2021/01/02 08:47:10;;;;;;;7.68;5.10;;;7.50;69.70;;;;;;5022407;28;20030;-65
2021/01/02 08:49:45;;;;;;;10.90;7.13;;;7.50;69.70;;;;;;5035428;28;20151;-65
2021/01/02 08:52:19;;;;;;;10.95;6.85;;;7.50;69.60;;;;;;5029513;28;20033;-65
2021/01/02 08:54:45;;;;;;;8.15;5.22;;;7.50;69.50;;;;;;5027300;28;20029;-65
2021/01/02 08:57:28;;;;;;;7.95;5.15;;;7.40;69.60;;;;;;5034788;28;20025;-65
2021/01/02 09:00:29;;;;;;;6.32;4.75;;;7.40;69.40;;;;;;5035278;28;20083;-65
2021/01/02 09:02:56;;;;;;;5.97;4.90;;;7.30;69.10;;;;;;5028482;28;20429;-65
2021/01/02 09:05:34;;;;;;;5.47;4.40;;;7.30;69.50;;;;;;5033269;28;20083;-64
2021/01/02 09:08:03;;;;;;;7.40;4.95;;;7.30;69.70;;;;;;5035738;28;20108;-64
2021/01/02 09:10:43;;;;;;;8.65;5.30;;;7.20;69.70;;;;;;5040435;28;20068;-65
2021/01/02 09:13:28;;;;;;;6.28;5.00;;;7.20;69.70;;;;;;5025469;28;20017;-65
2021/01/02 09:16:05;;;;;;;6.70;4.75;;;7.20;69.60;;;;;;5043357;28;20025;-65
2021/01/02 09:18:31;;;;;;;7.40;4.82;;;7.20;69.90;;;;;;5035186;28;20071;-64
2021/01/02 09:21:18;;;;;;;5.95;4.53;;;7.20;69.80;;;;;;5031002;28;20408;-65
2021/01/02 09:23:44;;;;;;;6.80;4.60;;;7.20;69.90;;;;;;5041134;28;20387;-64
2021/01/02 09:26:29;;;;;;;7.88;4.88;;;7.30;69.90;;;;;;5030905;28;20100;-64
2021/01/02 09:28:57;;;;;;;6.38;4.35;;;7.30;69.80;;;;;;5031447;28;20072;-65
2021/01/02 09:31:24;;;;;;;7.70;5.30;;;7.30;69.80;;;;;;5022529;28;20026;-65
2021/01/02 09:33:50;;;;;;;6.80;5.00;;;7.30;69.80;;;;;;5031658;28;20029;-65
2021/01/02 09:36:17;;;;;;;6.93;4.85;;;7.30;69.70;;;;;;5033088;28;20014;-64
2021/01/02 09:38:43;;;;;;;7.15;5.03;;;7.30;69.90;;;;;;5034283;28;20477;-64
2021/01/02 09:41:11;;;;;;;8.40;5.88;;;7.40;69.80;;;;;;5045837;28;20423;-64
2021/01/02 09:43:37;;;;;;;7.55;5.22;;;7.40;69.80;;;;;;5032835;28;20022;-64
2021/01/02 09:46:03;;;;;;;8.00;5.45;;;7.40;69.70;;;;;;5025751;28;20040;-65
2021/01/02 09:48:29;;;;;;;7.20;5.00;;;7.40;69.80;;;;;;5034278;28;20485;-64
2021/01/02 09:50:54;;;;;;;8.15;5.93;;;7.40;69.60;;;;;;5034246;28;20057;-64
2021/01/02 09:53:20;;;;;;;6.65;4.88;;;7.40;69.80;;;;;;5022496;28;20100;-65
2021/01/02 09:55:46;;;;;;;7.72;5.28;;;7.50;69.70;;;;;;5032876;28;20082;-64
2021/01/02 09:58:13;;;;;;;8.65;5.47;;;7.50;69.50;;;;;;5031724;28;20017;-64
2021/01/02 10:00:40;;;;;;;7.32;4.90;;;7.50;69.50;;;;;;5032082;28;20084;-64
2021/01/02 10:03:10;;;;;;;7.22;5.05;;;7.50;69.40;;;;;;5033411;28;20031;-64
2021/01/02 10:05:36;;;;;;;7.55;5.55;;;7.60;69.50;;;;;;5032055;28;20171;-64
2021/01/02 10:08:04;;;;;;;7.25;4.88;;;7.60;69.40;;;;;;5030670;28;20355;-64
2021/01/02 10:10:30;;;;;;;7.65;5.15;;;7.60;69.30;;;;;;5032455;28;20491;-64
2021/01/02 10:12:56;;;;;;;9.10;5.00;;;7.60;69.40;;;;;;5032418;28;20049;-64
2021/01/02 10:15:22;;;;;;;7.43;5.53;;;7.70;69.20;;;;;;5030733;28;20042;-64
2021/01/02 10:17:48;;;;;;;10.90;5.75;;;7.70;69.10;;;;;;5029768;28;20038;-64
2021/01/02 10:20:14;;;;;;;7.65;5.75;;;7.70;69.10;;;;;;5033029;28;20037;-64
2021/01/02 10:22:40;;;;;;;8.50;5.75;;;7.70;69.20;;;;;;5030048;28;20026;-64
2021/01/02 10:25:07;;;;;;;6.25;4.72;;;7.70;69.20;;;;;;5033521;28;20021;-64
2021/01/02 10:27:34;;;;;;;6.80;5.03;;;7.70;69.00;;;;;;5032594;28;20107;-64
2021/01/02 10:29:59;;;;;;;6.35;4.57;;;7.80;69.10;;;;;;5027385;28;20355;-64
2021/01/02 10:32:27;;;;;;;6.75;5.07;;;7.80;69.00;;;;;;5029427;28;20032;-64
2021/01/02 10:34:53;;;;;;;7.10;5.10;;;7.80;68.50;;;;;;5033175;28;20060;-64
2021/01/02 10:37:21;;;;;;;7.13;4.68;;;7.80;68.60;;;;;;5033094;28;20060;-64
2021/01/02 10:39:47;;;;;;;7.63;5.18;;;7.80;68.60;;;;;;5032878;28;20028;-64
2021/01/02 10:42:16;;;;;;;6.70;4.57;;;7.90;68.70;;;;;;5033262;28;20025;-64
2021/01/02 10:44:46;;;;;;;9.25;5.38;;;7.90;68.40;;;;;;5020079;28;20494;-64
2021/01/02 10:47:16;;;;;;;6.97;4.47;;;7.90;68.40;;;;;;5022756;28;20485;-64
2021/01/02 10:49:42;;;;;;;6.25;4.60;;;7.90;68.40;;;;;;5033323;28;20029;-64
2021/01/02 10:52:08;;;;;;;7.07;5.00;;;7.90;68.30;;;;;;5032851;28;20040;-64
2021/01/02 10:54:33;;;;;;;6.63;4.50;;;7.80;68.40;;;;;;5033184;28;20028;-64
2021/01/02 10:56:59;;;;;;;7.80;5.00;;;7.90;68.60;;;;;;5032466;28;20060;-64
2021/01/02 10:59:25;;;;;;;7.10;5.25;;;7.90;68.40;;;;;;5032817;28;20030;-64
2021/01/02 11:01:54;;;;;;;8.00;5.53;;;7.90;68.50;;;;;;5032606;28;20025;-64
2021/01/02 11:04:22;;;;;;;7.45;5.10;;;8.00;68.30;;;;;;5034388;28;20389;-64
2021/01/02 11:06:52;;;;;;;7.90;5.75;;;8.00;68.30;;;;;;5032985;28;20049;-64
2021/01/02 11:09:20;;;;;;;8.90;5.03;;;8.00;68.40;;;;;;5026774;28;20119;-65
2021/01/02 11:11:46;;;;;;;7.45;5.13;;;8.00;68.10;;;;;;5028853;28;20033;-64
2021/01/02 11:14:12;;;;;;;6.90;5.15;;;8.00;67.90;;;;;;5027032;28;20041;-65
2021/01/02 11:16:42;;;;;;;8.40;4.97;;;8.00;67.90;;;;;;5026472;28;20025;-65
2021/01/02 11:19:13;;;;;;;7.47;4.90;;;8.00;68.00;;;;;;5025019;28;20038;-64
2021/01/02 11:21:39;;;;;;;9.45;5.32;;;8.00;67.90;;;;;;5024258;28;20025;-65
2021/01/02 11:24:07;;;;;;;8.07;4.72;;;8.00;67.90;;;;;;5032380;28;20021;-65
2021/01/02 11:26:34;;;;;;;6.63;4.85;;;8.00;68.50;;;;;;5023918;28;20025;-64
2021/01/02 11:29:00;;;;;;;8.60;5.25;;;8.10;67.90;;;;;;5027543;28;20112;-63
2021/01/02 11:31:35;;;;;;;6.32;4.93;;;8.10;67.80;;;;;;5028202;28;20481;-64
2021/01/02 11:34:01;;;;;;;6.55;4.70;;;8.10;67.90;;;;;;5025413;28;20465;-63
2021/01/02 11:36:26;;;;;;;7.68;5.00;;;8.10;68.00;;;;;;5025033;28;20035;-64
2021/01/02 11:38:53;;;;;;;6.95;5.18;;;8.10;67.90;;;;;;5024320;28;20267;-64
2021/01/02 11:41:28;;;;;;;7.57;5.25;;;8.10;68.00;;;;;;5027924;28;20040;-63
2021/01/02 11:43:54;;;;;;;9.30;5.63;;;8.10;67.70;;;;;;5023477;28;20025;-64
2021/01/02 11:46:27;;;;;;;8.02;5.18;;;8.10;67.90;;;;;;5027979;28;20017;-64
2021/01/02 11:48:53;;;;;;;7.65;5.40;;;8.10;68.00;;;;;;5032329;28;20025;-64
2021/01/02 11:51:19;;;;;;;8.30;5.53;;;8.20;67.90;;;;;;5032262;28;20067;-64
2021/01/02 11:53:44;;;;;;;7.25;5.07;;;8.20;67.90;;;;;;5029042;28;20070;-64
2021/01/02 11:56:12;;;;;;;9.63;5.30;;;8.10;67.80;;;;;;5031425;28;20035;-64
2021/01/02 11:58:37;;;;;;;7.75;5.13;;;8.10;67.40;;;;;;5031509;28;20033;-63
2021/01/02 12:01:03;;;;;;;9.25;6.22;;;8.10;67.50;;;;;;5029722;28;20355;-63
2021/01/02 12:03:29;;;;;;;7.55;5.10;;;8.10;67.60;;;;;;5027733;28;20060;-64
2021/01/02 12:05:54;;;;;;;7.80;5.60;;;8.00;67.90;;;;;;5026727;28;20025;-64
2021/01/02 12:08:20;;;;;;;8.18;6.00;;;7.90;68.10;;;;;;5032149;28;20489;-63
2021/01/02 12:10:46;;;;;;;8.68;5.68;;;7.90;68.20;;;;;;5026676;28;20030;-63
2021/01/02 12:13:13;;;;;;;7.40;5.20;;;7.80;68.20;;;;;;5027926;28;20065;-63
2021/01/02 12:15:38;;;;;;;8.18;5.78;;;7.80;68.40;;;;;;5031731;28;20374;-63
2021/01/02 12:18:04;;;;;;;10.07;6.50;;;7.80;68.30;;;;;;5031106;28;20045;-63
2021/01/02 12:20:30;;;;;;;8.38;5.43;;;7.80;68.20;;;;;;5029257;28;20029;-63
2021/01/02 12:22:55;;;;;;;9.00;5.93;;;7.70;68.40;;;;;;5026275;28;20084;-64
2021/01/02 12:25:23;;;;;;;11.23;6.03;;;7.70;68.60;;;;;;5021241;28;20112;-63
2021/01/02 12:27:49;;;;;;;7.75;5.50;;;7.70;68.90;;;;;;5024421;28;20544;-64
2021/01/02 12:30:15;;;;;;;9.50;6.15;;;7.60;68.80;;;;;;5021654;28;20034;-64
2021/01/02 12:32:41;;;;;;;9.88;6.18;;;7.60;68.90;;;;;;5027487;28;20022;-64
2021/01/02 12:35:07;;;;;;;10.50;5.90;;;7.50;69.00;;;;;;5018884;28;20075;-64
2021/01/02 12:37:33;;;;;;;8.75;6.03;;;7.50;69.20;;;;;;5014537;28;20414;-64
2021/01/02 12:39:58;;;;;;;9.60;6.38;;;7.50;69.30;;;;;;5029905;28;20060;-63
2021/01/02 12:42:24;;;;;;;9.40;6.38;;;7.50;69.50;;;;;;5024053;28;20477;-63
2021/01/02 12:44:50;;;;;;;9.32;6.60;;;7.50;69.70;;;;;;5026145;28;20033;-63
2021/01/02 12:47:18;;;;;;;9.40;6.47;;;7.50;69.70;;;;;;5020911;28;20041;-63
2021/01/02 12:49:45;;;;;;;11.13;6.60;;;7.40;69.50;;;;;;5030106;28;20494;-63
2021/01/02 12:52:11;;;;;;;9.80;6.50;;;7.40;69.70;;;;;;5026232;28;20024;-63
2021/01/02 12:54:38;;;;;;;10.85;6.63;;;7.40;69.30;;;;;;5022280;28;20018;-63
2021/01/02 12:57:04;;;;;;;12.50;6.68;;;7.30;69.60;;;;;;5023214;28;20029;-63
2021/01/02 12:59:33;;;;;;;11.55;6.47;;;7.30;69.50;;;;;;5027682;28;20029;-63
2021/01/02 13:02:02;;;;;;;9.52;6.03;;;7.20;69.70;;;;;;5030919;28;20025;-64
2021/01/02 13:04:28;;;;;;;9.65;6.05;;;7.20;70.40;;;;;;5026453;28;20040;-63
2021/01/02 13:06:56;;;;;;;14.23;6.93;;;7.10;69.80;;;;;;5031906;28;20033;-63
2021/01/02 13:09:23;;;;;;;11.35;6.70;;;7.00;70.20;;;;;;5027302;28;20485;-63
2021/01/02 13:11:53;;;;;;;11.32;7.03;;;7.00;70.40;;;;;;5029895;28;20087;-63
2021/01/02 13:14:26;;;;;;;12.20;6.93;;;7.00;70.40;;;;;;5031187;28;20038;-63